Time;durP1;ratioP1;P1;durP2;ratioP2;P2;SDS_P1;SDS_P2;PMS_P1;PMS_P2;Temp;Humidity;BMP_temperature;BMP_pressure;BME280_temperature;BME280_humidity;BME280_pressure;Samples;Min_cycle;Max_cycle;Signal;HPM_P1;HPM_P2
2022/06/09 00:01:55;;;;;;;14.45;3.70;;;13.60;99.90;;;;;;7322367;32;20022;-61
2022/06/09 00:05:57;;;;;;;14.63;3.50;;;13.50;99.90;;;;;;7319190;32;20107;-60
2022/06/09 00:10:05;;;;;;;12.63;4.10;;;13.40;99.90;;;;;;7323155;32;20129;-59
2022/06/09 00:14:08;;;;;;;14.80;3.60;;;13.50;99.90;;;;;;7324383;32;20483;-58
2022/06/09 00:18:10;;;;;;;11.57;3.83;;;13.50;99.90;;;;;;7324419;32;20533;-59
2022/06/09 00:22:12;;;;;;;13.70;3.45;;;13.60;99.90;;;;;;7324488;32;20131;-59
2022/06/09 00:26:13;;;;;;;15.00;4.43;;;13.50;99.90;;;;;;7326435;32;20184;-59
2022/06/09 00:30:16;;;;;;;12.73;3.90;;;13.50;99.90;;;;;;7325227;32;20111;-59
2022/06/09 00:34:18;;;;;;;11.48;3.85;;;13.50;99.90;;;;;;7324261;32;20202;-59
2022/06/09 00:38:20;;;;;;;14.38;4.45;;;13.60;99.90;;;;;;7319361;32;20116;-59
2022/06/09 00:42:22;;;;;;;13.13;3.17;;;13.50;99.90;;;;;;7323779;32;20138;-59
2022/06/09 00:46:27;;;;;;;13.98;3.58;;;13.50;99.90;;;;;;7326569;32;20413;-59
2022/06/09 00:50:30;;;;;;;11.60;3.25;;;13.50;99.90;;;;;;7321677;32;20365;-59
2022/06/09 00:54:45;;;;;;;11.12;3.25;;;13.50;99.90;;;;;;7323488;32;20879;-60
2022/06/09 00:58:51;;;;;;;10.23;2.40;;;13.50;99.90;;;;;;7323722;32;20108;-59
2022/06/09 01:02:55;;;;;;;12.25;2.72;;;13.50;99.90;;;;;;7322601;32;20233;-58
2022/06/09 01:07:10;;;;;;;18.87;3.53;;;13.50;99.90;;;;;;7325458;32;20208;-58
2022/06/09 01:11:11;;;;;;;15.70;3.28;;;13.50;99.90;;;;;;7321236;32;20214;-59
2022/06/09 01:15:19;;;;;;;12.40;2.40;;;13.50;99.90;;;;;;7316944;32;20136;-59
2022/06/09 01:19:33;;;;;;;11.27;2.20;;;13.50;99.90;;;;;;7331627;32;20690;-59
2022/06/09 01:24:00;;;;;;;12.88;2.50;;;13.50;99.90;;;;;;7324076;32;20696;-59
2022/06/09 01:28:21;;;;;;;12.88;2.40;;;13.40;99.90;;;;;;7320227;32;21101;-58
2022/06/09 01:32:33;;;;;;;11.85;2.50;;;13.40;99.90;;;;;;7318842;32;20141;-58
2022/06/09 01:36:41;;;;;;;10.73;2.55;;;13.40;99.90;;;;;;7321213;32;20725;-59
2022/06/09 01:40:42;;;;;;;8.43;2.60;;;13.40;99.90;;;;;;7324253;32;20230;-58
2022/06/09 01:44:44;;;;;;;16.27;2.80;;;13.30;99.90;;;;;;7325927;32;20134;-58
2022/06/09 01:48:51;;;;;;;9.85;2.83;;;13.30;99.90;;;;;;7319838;32;20139;-59
2022/06/09 01:52:55;;;;;;;16.27;2.92;;;13.30;99.90;;;;;;7329558;32;20562;-58
2022/06/09 01:57:09;;;;;;;10.60;2.30;;;13.40;99.90;;;;;;7327071;32;20115;-58
2022/06/09 02:01:13;;;;;;;8.60;2.20;;;13.30;99.90;;;;;;7322314;32;20546;-59
2022/06/09 02:05:23;;;;;;;12.40;2.75;;;13.30;99.90;;;;;;7325847;32;20278;-60
2022/06/09 02:09:28;;;;;;;9.93;2.42;;;13.20;99.90;;;;;;7322273;32;20115;-60
2022/06/09 02:13:34;;;;;;;8.93;2.60;;;13.20;99.90;;;;;;7310952;32;20112;-59
2022/06/09 02:17:53;;;;;;;9.80;2.72;;;13.10;99.90;;;;;;7317878;32;20131;-59
2022/06/09 02:21:56;;;;;;;12.13;2.45;;;13.10;99.90;;;;;;7321906;32;20226;-60
2022/06/09 02:25:57;;;;;;;12.30;2.55;;;13.20;99.90;;;;;;7320766;32;20184;-59
2022/06/09 02:29:59;;;;;;;14.93;3.05;;;13.10;99.90;;;;;;7321721;32;20305;-60
2022/06/09 02:34:01;;;;;;;15.27;3.50;;;13.00;99.90;;;;;;7327691;32;20153;-59
2022/06/09 02:38:04;;;;;;;12.73;3.35;;;13.00;99.90;;;;;;7322836;32;20115;-60
2022/06/09 02:42:07;;;;;;;12.98;2.67;;;13.00;99.90;;;;;;7322998;32;20194;-60
2022/06/09 02:46:10;;;;;;;15.77;3.22;;;13.00;99.90;;;;;;7326077;32;20532;-59
2022/06/09 02:50:12;;;;;;;14.70;2.75;;;12.90;99.90;;;;;;7321884;32;20222;-60
2022/06/09 02:54:14;;;;;;;16.58;3.60;;;12.90;99.90;;;;;;7312851;32;20690;-59
2022/06/09 02:58:16;;;;;;;12.00;2.60;;;12.90;99.90;;;;;;7316178;32;20226;-59
2022/06/09 03:02:19;;;;;;;16.52;3.30;;;12.90;99.90;;;;;;7325665;32;20115;-59
2022/06/09 03:06:21;;;;;;;20.58;3.53;;;13.10;99.90;;;;;;7325156;32;20636;-60
2022/06/09 03:10:23;;;;;;;10.68;3.20;;;12.90;99.90;;;;;;7324145;32;20454;-60
2022/06/09 03:14:25;;;;;;;15.90;3.37;;;13.00;99.90;;;;;;7328574;32;20115;-59
2022/06/09 03:18:26;;;;;;;14.75;3.72;;;13.00;99.90;;;;;;7324924;32;20120;-59
2022/06/09 03:22:30;;;;;;;21.98;4.80;;;13.10;99.90;;;;;;7321062;32;20712;-60
2022/06/09 03:26:31;;;;;;;16.67;4.57;;;13.00;99.90;;;;;;7320486;32;20583;-60
2022/06/09 03:30:33;;;;;;;20.98;4.75;;;13.10;99.90;;;;;;7323998;32;20249;-60
2022/06/09 03:34:35;;;;;;;19.20;5.05;;;13.20;99.90;;;;;;7324709;32;20898;-59
2022/06/09 03:38:40;;;;;;;22.80;5.68;;;13.20;99.90;;;;;;7321028;32;20108;-60
2022/06/09 03:42:42;;;;;;;22.55;6.60;;;13.20;99.90;;;;;;7319345;32;20133;-60
2022/06/09 03:46:44;;;;;;;19.80;6.32;;;13.20;99.90;;;;;;7317203;32;20126;-60
2022/06/09 03:50:45;;;;;;;23.15;6.20;;;13.20;99.90;;;;;;7325293;32;20190;-60
2022/06/09 03:54:47;;;;;;;16.00;6.00;;;13.30;99.90;;;;;;7336492;32;20128;-60
2022/06/09 03:58:49;;;;;;;19.55;6.15;;;13.20;99.90;;;;;;7324258;32;20252;-60
2022/06/09 04:02:50;;;;;;;18.17;6.37;;;13.30;99.90;;;;;;7327957;32;20202;-60
2022/06/09 04:06:52;;;;;;;22.20;6.68;;;13.40;99.90;;;;;;7325788;32;20522;-60
2022/06/09 04:10:55;;;;;;;24.52;6.55;;;13.30;99.90;;;;;;7321797;32;20134;-60
2022/06/09 04:14:57;;;;;;;17.23;6.32;;;13.40;99.90;;;;;;7325022;32;20129;-59
2022/06/09 04:19:01;;;;;;;19.35;7.12;;;13.40;99.90;;;;;;7321466;32;20190;-60
2022/06/09 04:23:03;;;;;;;23.40;7.25;;;13.40;99.90;;;;;;7326224;32;20119;-61
2022/06/09 04:27:05;;;;;;;17.95;6.12;;;13.30;99.90;;;;;;7319805;32;20465;-59
2022/06/09 04:31:07;;;;;;;18.58;6.28;;;13.40;99.90;;;;;;7322047;32;20134;-59
2022/06/09 04:35:09;;;;;;;20.88;7.28;;;13.40;99.90;;;;;;7325336;32;20202;-58
2022/06/09 04:39:11;;;;;;;29.42;8.10;;;13.40;99.90;;;;;;7323527;32;20139;-58
2022/06/09 04:43:12;;;;;;;22.80;7.55;;;13.40;99.90;;;;;;7321400;32;20108;-58
2022/06/09 04:47:14;;;;;;;23.77;7.53;;;13.50;99.90;;;;;;7321791;32;20130;-60
2022/06/09 04:51:18;;;;;;;23.33;7.32;;;13.40;99.90;;;;;;7319942;32;20115;-62
2022/06/09 04:55:20;;;;;;;25.58;8.07;;;13.50;99.90;;;;;;7325429;32;20864;-62
2022/06/09 04:59:22;;;;;;;25.00;8.75;;;13.50;99.90;;;;;;7318788;32;20538;-63
2022/06/09 05:03:24;;;;;;;22.20;9.30;;;13.50;99.90;;;;;;7314149;32;20173;-63
2022/06/09 05:07:27;;;;;;;30.50;8.90;;;13.50;99.90;;;;;;7321110;32;20141;-61
2022/06/09 05:11:29;;;;;;;24.60;10.00;;;13.50;99.90;;;;;;7319601;32;20285;-62
2022/06/09 05:15:31;;;;;;;23.10;9.35;;;13.60;99.90;;;;;;7318289;32;20194;-62
2022/06/09 05:19:33;;;;;;;27.70;10.57;;;13.60;99.90;;;;;;7321527;32;20290;-64
2022/06/09 05:23:36;;;;;;;19.58;9.57;;;13.60;99.90;;;;;;7331071;32;20107;-63
2022/06/09 05:27:37;;;;;;;29.83;11.52;;;13.60;99.90;;;;;;7316043;32;20346;-63
2022/06/09 05:31:39;;;;;;;36.15;12.02;;;13.70;99.90;;;;;;7315212;32;20619;-66
2022/06/09 05:35:41;;;;;;;28.50;11.95;;;13.70;99.90;;;;;;7328962;32;20114;-62
2022/06/09 05:48:25;;;;;;;37.80;10.90;;;13.80;99.90;;;;;;7314161;32;20135;-64
2022/06/09 05:52:28;;;;;;;24.48;10.70;;;13.90;99.90;;;;;;7316362;32;20666;-62
2022/06/09 05:56:30;;;;;;;23.02;10.00;;;13.90;99.90;;;;;;7324243;32;20844;-61
2022/06/09 06:00:32;;;;;;;27.73;10.05;;;13.90;99.90;;;;;;7316263;32;20229;-63
2022/06/09 06:04:35;;;;;;;29.08;10.52;;;13.90;99.90;;;;;;7309244;32;20815;-61
2022/06/09 06:08:38;;;;;;;23.02;9.63;;;14.00;99.90;;;;;;7312449;32;20208;-62
2022/06/09 06:12:39;;;;;;;25.27;9.45;;;14.00;99.90;;;;;;7309453;32;20204;-62
2022/06/09 06:16:42;;;;;;;25.70;8.98;;;14.10;99.90;;;;;;7315394;32;20162;-62
2022/06/09 06:20:44;;;;;;;33.50;11.38;;;14.00;99.90;;;;;;7316208;32;20282;-63
2022/06/09 06:24:45;;;;;;;23.48;9.70;;;14.10;99.90;;;;;;7319235;32;20152;-62
2022/06/09 06:28:47;;;;;;;23.38;9.82;;;14.10;99.90;;;;;;7307836;32;20186;-62
2022/06/09 06:32:50;;;;;;;22.10;10.52;;;14.20;99.90;;;;;;7310449;32;20194;-63
2022/06/09 06:36:51;;;;;;;30.42;11.75;;;14.20;99.90;;;;;;7310775;32;20209;-61
2022/06/09 06:40:54;;;;;;;22.20;9.32;;;14.20;99.90;;;;;;7309032;32;20186;-61
2022/06/09 06:44:57;;;;;;;28.83;10.95;;;14.20;99.90;;;;;;7307373;32;20142;-62
2022/06/09 06:48:58;;;;;;;26.70;10.40;;;14.20;99.90;;;;;;7315613;32;20134;-62
2022/06/09 06:53:00;;;;;;;24.30;10.57;;;14.30;99.90;;;;;;7314444;32;20713;-61
2022/06/09 06:57:05;;;;;;;23.67;11.48;;;14.50;99.90;;;;;;7318230;32;20229;-61
2022/06/09 07:01:07;;;;;;;20.20;11.27;;;14.50;99.90;;;;;;7310946;32;20229;-63
2022/06/09 07:05:09;;;;;;;22.10;11.20;;;14.40;99.90;;;;;;7309258;32;20542;-63
2022/06/09 07:09:11;;;;;;;25.58;11.77;;;14.40;99.90;;;;;;7311005;32;20467;-62
2022/06/09 07:13:13;;;;;;;36.95;12.85;;;14.40;99.90;;;;;;7304507;32;20251;-64
2022/06/09 07:17:15;;;;;;;24.45;12.02;;;14.50;99.90;;;;;;7318046;32;20237;-64
2022/06/09 07:21:17;;;;;;;26.73;12.52;;;14.50;99.90;;;;;;7305772;32;20258;-63
2022/06/09 07:25:20;;;;;;;24.58;13.75;;;14.60;99.90;;;;;;7308695;32;20186;-63
2022/06/09 07:29:25;;;;;;;18.27;11.12;;;14.60;99.90;;;;;;7308604;32;20234;-62
2022/06/09 07:33:30;;;;;;;23.15;12.00;;;14.60;99.90;;;;;;7315488;32;20590;-62
2022/06/09 07:37:38;;;;;;;24.27;12.40;;;14.60;99.90;;;;;;7315414;32;20560;-61
2022/06/09 07:41:40;;;;;;;23.17;12.37;;;14.60;99.90;;;;;;7314323;32;20282;-62
2022/06/09 07:45:42;;;;;;;23.38;13.05;;;14.60;99.90;;;;;;7304114;32;20588;-62
2022/06/09 07:49:44;;;;;;;21.05;12.75;;;14.70;99.90;;;;;;7315162;32;20115;-62
2022/06/09 07:53:46;;;;;;;27.02;12.27;;;14.90;99.90;;;;;;7312475;32;20115;-62
2022/06/09 07:57:48;;;;;;;24.50;12.82;;;15.20;99.90;;;;;;7313035;32;20124;-62
2022/06/09 08:01:50;;;;;;;26.77;12.95;;;15.30;99.90;;;;;;7319983;32;20302;-61
2022/06/09 08:05:55;;;;;;;22.02;12.68;;;15.40;99.90;;;;;;7315114;32;20343;-62
2022/06/09 08:10:21;;;;;;;23.12;12.55;;;15.40;99.90;;;;;;7315420;32;20142;-62
2022/06/09 08:14:22;;;;;;;20.00;12.10;;;15.50;99.90;;;;;;7308694;32;20243;-63
2022/06/09 08:18:24;;;;;;;19.37;11.48;;;15.50;99.90;;;;;;7309381;32;20116;-63
2022/06/09 08:22:27;;;;;;;16.73;11.10;;;15.40;99.90;;;;;;7319636;32;20242;-62
2022/06/09 08:26:28;;;;;;;20.80;11.95;;;15.40;99.90;;;;;;7316239;32;20107;-62
2022/06/09 08:30:32;;;;;;;19.58;12.37;;;15.20;99.90;;;;;;7315117;32;20238;-62
2022/06/09 08:34:34;;;;;;;17.02;12.02;;;15.20;99.90;;;;;;7322131;32;20451;-61
2022/06/09 08:38:36;;;;;;;21.12;12.32;;;15.30;99.90;;;;;;7323994;32;20103;-62
2022/06/09 08:43:02;;;;;;;15.98;10.43;;;15.30;99.90;;;;;;7320740;32;20165;-62
2022/06/09 08:47:27;;;;;;;15.88;10.23;;;15.20;99.90;;;;;;7320100;32;20290;-61
2022/06/09 08:51:44;;;;;;;20.62;12.18;;;15.20;99.90;;;;;;7320668;32;20447;-62
2022/06/09 08:55:51;;;;;;;16.70;10.75;;;15.10;99.90;;;;;;7323957;32;20111;-62
2022/06/09 08:59:57;;;;;;;13.75;10.50;;;15.10;99.90;;;;;;7326731;32;20115;-62
2022/06/09 09:04:08;;;;;;;17.08;10.98;;;15.20;99.90;;;;;;7322268;32;20137;-61
2022/06/09 09:08:11;;;;;;;15.93;9.75;;;15.20;99.90;;;;;;7324398;32;20138;-63
2022/06/09 09:12:19;;;;;;;19.30;10.93;;;15.30;99.90;;;;;;7326195;32;20725;-62
2022/06/09 09:16:33;;;;;;;14.48;10.55;;;15.40;99.90;;;;;;7322287;32;20599;-62
2022/06/09 09:20:55;;;;;;;21.17;11.20;;;15.50;99.90;;;;;;7326223;32;20123;-64
2022/06/09 09:25:08;;;;;;;17.23;11.68;;;15.60;99.90;;;;;;7321012;32;20200;-64
2022/06/09 09:29:27;;;;;;;16.90;10.40;;;15.80;99.90;;;;;;7314072;32;20211;-62
2022/06/09 09:33:30;;;;;;;16.23;9.35;;;16.00;99.90;;;;;;7312599;32;20556;-63
2022/06/09 09:37:40;;;;;;;17.77;10.50;;;16.20;99.90;;;;;;7312645;32;20607;-62
2022/06/09 09:41:43;;;;;;;17.37;8.98;;;17.20;99.90;;;;;;7315199;32;20222;-62
2022/06/09 09:45:49;;;;;;;17.65;9.30;;;17.50;99.90;;;;;;7310020;32;20654;-61
2022/06/09 09:49:52;;;;;;;15.57;9.70;;;17.20;99.90;;;;;;7324741;32;20182;-62
2022/06/09 09:53:56;;;;;;;14.82;8.35;;;16.90;99.90;;;;;;7319097;32;20190;-64
2022/06/09 09:58:28;;;;;;;3.95;2.00;;;16.60;99.90;;;;;;7321921;32;20185;-63
2022/06/09 10:12:16;;;;;;;6.75;1.60;;;15.40;99.90;;;;;;7315422;32;20659;-62
2022/06/09 10:16:20;;;;;;;4.90;1.73;;;15.20;99.90;;;;;;7308482;32;20304;-61
2022/06/09 10:21:01;;;;;;;8.88;2.37;;;15.10;99.90;;;;;;7307926;32;20183;-63
2022/06/09 10:25:23;;;;;;;8.70;3.97;;;15.00;99.90;;;;;;7309229;32;20179;-63
2022/06/09 10:29:36;;;;;;;7.75;4.00;;;15.00;99.90;;;;;;7314600;32;20486;-61
2022/06/09 10:33:48;;;;;;;5.68;4.15;;;15.00;99.90;;;;;;7315369;32;20620;-62
2022/06/09 10:38:04;;;;;;;6.80;3.53;;;14.90;99.90;;;;;;7315911;32;20111;-62
2022/06/09 10:42:25;;;;;;;5.82;3.17;;;15.00;99.90;;;;;;7317256;32;20818;-62
2022/06/09 10:46:27;;;;;;;4.62;3.40;;;14.90;99.90;;;;;;7312168;32;20107;-63
2022/06/09 10:55:36;;;;;;;4.18;2.95;;;15.40;99.90;;;;;;7311454;32;20453;-62
2022/06/09 10:59:55;;;;;;;10.55;4.15;;;15.80;99.90;;;;;;7317298;32;20111;-62
2022/06/09 11:04:00;;;;;;;8.82;4.47;;;16.30;99.90;;;;;;7316104;32;20649;-62
2022/06/09 11:08:39;;;;;;;8.93;5.18;;;16.70;99.90;;;;;;7327939;32;20379;-62
2022/06/09 11:13:00;;;;;;;10.65;4.93;;;17.00;99.90;;;;;;7289192;32;20250;-64
2022/06/09 11:17:38;;;;;;;11.20;5.07;;;17.30;99.90;;;;;;7307723;32;20244;-63
2022/06/09 11:22:13;;;;;;;8.60;4.43;;;17.60;99.90;;;;;;7313163;32;20288;-63
2022/06/09 11:26:29;;;;;;;9.00;6.18;;;17.80;99.90;;;;;;7308846;32;20201;-63
2022/06/09 11:30:43;;;;;;;15.13;6.45;;;17.80;99.90;;;;;;7309341;32;20622;-63
2022/06/09 11:35:20;;;;;;;12.20;7.18;;;17.70;99.90;;;;;;7304835;32;20578;-64
2022/06/09 11:39:37;;;;;;;11.15;6.25;;;17.80;99.90;;;;;;7284446;32;20245;-63
2022/06/09 11:43:39;;;;;;;;;;;18.20;99.90;;;;;;7305901;32;20248;-63
2022/06/09 11:47:42;;;;;;;9.10;6.55;;;18.50;99.90;;;;;;7305673;32;20094;-64
2022/06/09 11:51:45;;;;;;;14.57;7.55;;;18.50;99.90;;;;;;7307935;32;20911;-64
2022/06/09 11:56:00;;;;;;;8.95;6.68;;;18.40;99.90;;;;;;7317325;32;20187;-64
2022/06/09 12:00:26;;;;;;;10.20;6.35;;;18.20;99.90;;;;;;7315653;32;20547;-63
2022/06/09 12:05:16;;;;;;;11.43;5.20;;;17.80;99.90;;;;;;7296996;32;20271;-62
2022/06/09 12:09:42;;;;;;;8.40;3.87;;;17.90;99.90;;;;;;7312178;32;20182;-63
2022/06/09 12:13:58;;;;;;;6.55;3.58;;;17.90;99.90;;;;;;7309385;32;20547;-63
2022/06/09 12:18:06;;;;;;;6.87;3.85;;;17.90;99.90;;;;;;7319914;32;20104;-64
2022/06/09 12:22:29;;;;;;;8.68;5.12;;;17.90;99.90;;;;;;7311240;32;20535;-65
2022/06/09 12:26:42;;;;;;;7.97;5.20;;;17.90;99.90;;;;;;7313507;32;20213;-63
2022/06/09 12:31:08;;;;;;;7.72;4.00;;;17.90;99.90;;;;;;7314255;32;20384;-62
2022/06/09 12:35:21;;;;;;;5.40;3.42;;;17.80;99.90;;;;;;7316536;32;20222;-62
2022/06/09 12:39:29;;;;;;;6.82;3.92;;;17.80;99.90;;;;;;7310701;32;20130;-61
2022/06/09 12:43:33;;;;;;;7.15;3.40;;;17.90;99.90;;;;;;7310703;32;20183;-62
2022/06/09 12:47:35;;;;;;;8.90;4.10;;;18.00;99.90;;;;;;7305857;32;20153;-62
2022/06/09 12:51:40;;;;;;;5.57;3.10;;;18.50;99.90;;;;;;7302511;32;20190;-60
2022/06/09 12:55:50;;;;;;;4.72;2.70;;;18.70;99.90;;;;;;7301093;32;20245;-62
2022/06/09 13:00:16;;;;;;;5.00;2.90;;;18.90;99.90;;;;;;7302180;32;20544;-65
2022/06/09 13:04:18;;;;;;;6.10;2.80;;;18.90;99.90;;;;;;7310537;32;20186;-63
2022/06/09 13:08:27;;;;;;;7.62;3.22;;;19.10;99.90;;;;;;7299383;32;20201;-65
2022/06/09 13:16:54;;;;;;;6.22;2.50;;;18.30;99.90;;;;;;7306753;32;20551;-63
2022/06/09 13:21:08;;;;;;;5.50;2.67;;;17.70;99.90;;;;;;7308579;32;20553;-62
2022/06/09 13:25:23;;;;;;;6.55;2.75;;;17.10;99.90;;;;;;7306497;32;20195;-66
2022/06/09 13:29:32;;;;;;;5.03;2.40;;;16.70;99.90;;;;;;7307837;32;20296;-65
2022/06/09 13:33:59;;;;;;;2.92;1.73;;;16.70;99.90;;;;;;7312596;32;20852;-66
2022/06/09 13:38:33;;;;;;;4.10;1.80;;;16.70;99.90;;;;;;7312528;32;20194;-64
2022/06/09 13:42:53;;;;;;;4.05;1.80;;;16.80;99.90;;;;;;7315304;32;20190;-65
2022/06/09 13:47:04;;;;;;;4.62;1.65;;;16.90;99.90;;;;;;7305255;32;20191;-62
2022/06/09 13:51:10;;;;;;;4.37;1.45;;;16.80;99.90;;;;;;7305092;32;20497;-63
2022/06/09 13:55:18;;;;;;;1.58;1.37;;;16.80;99.90;;;;;;7315413;32;20190;-65
2022/06/09 13:59:20;;;;;;;2.53;1.33;;;16.90;99.90;;;;;;7295818;32;20284;-63
2022/06/09 14:03:34;;;;;;;2.95;1.20;;;17.20;99.90;;;;;;7305124;32;20194;-64
2022/06/09 14:07:36;;;;;;;5.87;1.83;;;17.50;99.90;;;;;;7308400;32;20222;-63
2022/06/09 14:11:37;;;;;;;3.65;1.40;;;17.90;99.90;;;;;;7305272;32;20512;-64
2022/06/09 14:15:59;;;;;;;3.85;1.90;;;18.30;99.90;;;;;;7306380;32;20190;-65
2022/06/09 14:20:01;;;;;;;4.82;1.70;;;18.40;99.90;;;;;;7305050;32;20275;-65
2022/06/09 14:24:17;;;;;;;4.55;2.55;;;18.70;99.90;;;;;;7305151;32;20187;-66
2022/06/09 14:28:18;;;;;;;5.20;1.80;;;19.10;99.90;;;;;;7305149;32;20201;-67
2022/06/09 14:32:20;;;;;;;4.75;1.62;;;18.50;99.90;;;;;;7308474;32;20216;-64
2022/06/09 14:36:27;;;;;;;4.32;1.30;;;17.90;99.90;;;;;;7301019;32;20547;-65
2022/06/09 14:40:32;;;;;;;3.80;1.17;;;17.70;99.90;;;;;;7303830;32;20190;-65
2022/06/09 14:44:33;;;;;;;3.15;1.15;;;17.40;99.90;;;;;;7305655;32;20201;-66
2022/06/09 14:48:35;;;;;;;5.68;1.10;;;17.10;99.90;;;;;;7301374;32;20917;-65
2022/06/09 14:52:37;;;;;;;4.50;0.80;;;17.00;99.90;;;;;;7303297;32;20205;-65
2022/06/09 14:56:41;;;;;;;2.47;0.80;;;17.20;99.90;;;;;;7305809;32;21034;-65
2022/06/09 15:00:44;;;;;;;5.55;1.00;;;17.30;99.90;;;;;;7301438;32;20198;-64
2022/06/09 15:04:46;;;;;;;6.03;0.98;;;17.60;99.90;;;;;;7298599;32;20576;-65
2022/06/09 15:08:50;;;;;;;2.22;0.70;;;17.90;99.90;;;;;;7319359;32;20107;-66
2022/06/09 15:12:52;;;;;;;6.15;1.05;;;18.00;99.90;;;;;;7314905;32;20137;-65
2022/06/09 15:16:54;;;;;;;3.85;0.93;;;18.30;99.90;;;;;;7317354;32;20578;-65
2022/06/09 15:20:57;;;;;;;8.18;4.45;;;18.80;99.90;;;;;;7318318;32;20108;-66
2022/06/09 15:24:58;;;;;;;2.85;0.73;;;18.80;99.90;;;;;;7317876;32;20169;-65
2022/06/09 15:29:02;;;;;;;1.73;0.60;;;19.00;99.90;;;;;;7314235;32;20112;-66
2022/06/09 15:33:04;;;;;;;2.47;0.70;;;19.10;99.90;;;;;;7312906;32;20597;-65
2022/06/09 15:37:06;;;;;;;3.90;0.60;;;18.90;99.90;;;;;;7317272;32;20862;-65
2022/06/09 15:41:08;;;;;;;1.90;0.90;;;18.80;99.90;;;;;;7327468;32;20225;-65
2022/06/09 15:45:12;;;;;;;2.65;0.90;;;18.60;99.90;;;;;;7332171;32;20492;-66
2022/06/09 15:49:14;;;;;;;2.28;0.68;;;18.50;99.90;;;;;;7325204;32;20245;-65
2022/06/09 15:53:16;;;;;;;2.58;0.90;;;18.30;99.90;;;;;;7325251;32;20215;-65
2022/06/09 15:57:18;;;;;;;2.28;0.60;;;18.20;99.90;;;;;;7335577;32;20440;-65
2022/06/09 16:01:20;;;;;;;2.70;0.80;;;18.20;99.90;;;;;;7321689;32;20346;-65
2022/06/09 16:05:23;;;;;;;3.17;0.70;;;18.20;99.90;;;;;;7333551;32;20202;-64
2022/06/09 16:09:24;;;;;;;8.00;0.95;;;18.30;99.90;;;;;;7321440;32;20439;-65
2022/06/09 16:13:26;;;;;;;3.42;0.90;;;18.60;99.90;;;;;;7326869;32;20134;-65
2022/06/09 16:17:29;;;;;;;4.15;1.27;;;18.90;99.90;;;;;;7327370;32;20428;-65
2022/06/09 16:21:31;;;;;;;6.50;1.40;;;19.10;99.90;;;;;;7331035;32;20137;-65
2022/06/09 16:25:33;;;;;;;6.75;1.30;;;19.40;99.90;;;;;;7320619;32;20246;-65
2022/06/09 16:29:35;;;;;;;6.47;1.40;;;19.40;99.90;;;;;;7328927;32;20116;-67
2022/06/09 16:33:36;;;;;;;3.15;0.93;;;19.50;99.90;;;;;;7328453;32;20574;-66
2022/06/09 16:37:38;;;;;;;5.20;1.10;;;19.50;99.90;;;;;;7333966;32;20104;-67
2022/06/09 16:41:40;;;;;;;7.85;1.67;;;19.30;99.90;;;;;;7320865;32;20525;-66
2022/06/09 16:45:45;;;;;;;5.75;1.20;;;19.10;99.90;;;;;;7323652;32;20724;-66
2022/06/09 16:49:46;;;;;;;7.00;1.20;;;18.80;99.90;;;;;;7317016;32;20143;-65
2022/06/09 16:53:48;;;;;;;5.03;1.10;;;18.70;99.90;;;;;;7316182;32;20770;-66
2022/06/09 16:57:52;;;;;;;4.30;1.30;;;18.70;99.90;;;;;;7323006;32;20116;-65
2022/06/09 17:01:54;;;;;;;5.37;1.50;;;18.80;99.90;;;;;;7333800;32;20256;-65
2022/06/09 17:05:57;;;;;;;5.78;1.55;;;18.70;99.90;;;;;;7326577;32;20186;-65
2022/06/09 17:10:01;;;;;;;5.30;1.50;;;18.60;99.90;;;;;;7329521;32;20173;-66
2022/06/09 17:14:05;;;;;;;6.12;1.62;;;18.60;99.90;;;;;;7316485;32;21687;-66
2022/06/09 17:18:07;;;;;;;4.12;1.75;;;18.60;99.90;;;;;;7310765;32;20587;-67
2022/06/09 17:22:09;;;;;;;4.95;1.40;;;18.50;99.90;;;;;;7317759;32;20403;-65
2022/06/09 17:26:15;;;;;;;7.03;1.77;;;18.60;99.90;;;;;;7318448;32;20557;-65
2022/06/09 17:30:17;;;;;;;5.35;2.12;;;18.60;99.90;;;;;;7320846;32;20139;-66
2022/06/09 17:34:19;;;;;;;3.17;1.50;;;18.60;99.90;;;;;;7330104;32;20122;-64
2022/06/09 17:38:22;;;;;;;7.05;1.87;;;18.60;99.90;;;;;;7324554;32;20523;-63
2022/06/09 17:46:23;;;;;;;7.12;2.47;;;18.70;99.90;;;;;;7381586;31;20217;-63
2022/06/09 17:50:28;;;;;;;5.32;2.03;;;18.80;99.90;;;;;;7357426;32;20749;-64
2022/06/09 17:54:29;;;;;;;8.23;2.17;;;18.70;99.90;;;;;;7363827;32;20736;-63
2022/06/09 17:58:37;;;;;;;5.65;1.70;;;18.60;99.90;;;;;;7363721;32;20104;-64
2022/06/09 18:02:40;;;;;;;7.28;2.47;;;18.40;99.90;;;;;;7359909;32;20141;-64
2022/06/09 18:06:42;;;;;;;7.03;2.10;;;18.30;99.90;;;;;;7357013;32;20701;-65
2022/06/09 18:10:46;;;;;;;6.28;2.20;;;18.00;99.90;;;;;;7361045;32;20111;-64
2022/06/09 18:14:48;;;;;;;9.35;2.33;;;18.00;99.90;;;;;;7355171;32;20214;-63
2022/06/09 18:18:50;;;;;;;3.45;2.05;;;18.00;99.90;;;;;;7357019;32;20261;-65
2022/06/09 18:22:52;;;;;;;7.50;1.80;;;17.90;99.90;;;;;;7360171;32;20677;-65
2022/06/09 18:26:54;;;;;;;8.15;1.90;;;17.80;99.90;;;;;;7343756;32;20145;-65
2022/06/09 18:30:59;;;;;;;6.07;1.62;;;17.80;99.90;;;;;;7367245;32;20115;-68
2022/06/09 18:35:01;;;;;;;8.80;1.90;;;17.70;99.90;;;;;;7359864;32;20371;-68
2022/06/09 18:39:04;;;;;;;7.37;2.00;;;17.80;99.90;;;;;;7367591;32;20206;-67
2022/06/09 18:43:08;;;;;;;6.97;2.08;;;17.80;99.90;;;;;;7358115;32;20115;-68
2022/06/09 18:47:10;;;;;;;6.95;1.85;;;17.70;99.90;;;;;;7358335;32;20835;-67
2022/06/09 18:51:13;;;;;;;6.10;1.80;;;17.60;99.90;;;;;;7363729;32;20190;-68
2022/06/09 18:55:15;;;;;;;7.00;1.60;;;17.40;99.90;;;;;;7345853;32;20107;-65
2022/06/09 18:59:17;;;;;;;6.40;1.30;;;17.20;99.90;;;;;;7342707;32;20103;-67
2022/06/09 19:03:20;;;;;;;9.27;2.25;;;17.10;99.90;;;;;;7338703;32;20211;-67
2022/06/09 19:07:21;;;;;;;5.62;1.90;;;16.90;99.90;;;;;;7343611;32;20558;-64
2022/06/09 19:11:24;;;;;;;4.45;1.52;;;16.80;99.90;;;;;;7338370;32;20162;-65
2022/06/09 19:15:30;;;;;;;7.53;2.05;;;16.70;99.90;;;;;;7338238;32;20205;-66
2022/06/09 19:19:33;;;;;;;6.12;2.10;;;16.60;99.90;;;;;;7342945;32;20316;-65
2022/06/09 19:23:44;;;;;;;4.22;2.00;;;16.60;99.90;;;;;;7347922;32;20738;-66
2022/06/09 19:27:48;;;;;;;10.02;2.70;;;16.50;99.90;;;;;;7351118;32;20471;-67
2022/06/09 19:31:50;;;;;;;10.43;2.67;;;16.50;99.90;;;;;;7346031;32;20533;-66
2022/06/09 19:35:56;;;;;;;5.80;2.10;;;16.40;99.90;;;;;;7343705;32;20185;-66
2022/06/09 19:39:57;;;;;;;4.28;2.00;;;16.30;99.90;;;;;;7347737;32;20190;-67
2022/06/09 19:43:59;;;;;;;7.10;2.47;;;16.20;99.90;;;;;;7341710;32;20121;-67
2022/06/09 19:48:02;;;;;;;7.28;2.30;;;16.10;99.90;;;;;;7342504;32;20115;-68
2022/06/09 19:52:04;;;;;;;4.43;2.40;;;16.00;99.90;;;;;;7338728;32;20107;-68
2022/06/09 19:56:06;;;;;;;15.30;9.63;;;16.00;99.90;;;;;;7338097;32;20457;-68
2022/06/09 20:00:15;;;;;;;13.82;3.35;;;15.80;99.90;;;;;;7339460;32;20115;-62
2022/06/09 20:04:17;;;;;;;8.45;2.65;;;15.70;99.90;;;;;;7344087;32;20488;-64
2022/06/09 20:08:20;;;;;;;7.87;2.85;;;15.50;99.90;;;;;;7342938;32;20103;-67
2022/06/09 20:12:22;;;;;;;5.57;2.62;;;15.30;99.90;;;;;;7342192;32;20229;-66
2022/06/09 20:16:25;;;;;;;7.72;2.95;;;15.20;99.90;;;;;;7343905;32;20558;-64
2022/06/09 20:20:38;;;;;;;5.50;2.97;;;15.10;99.90;;;;;;7343011;32;20226;-65
2022/06/09 20:24:41;;;;;;;4.78;2.62;;;15.00;99.90;;;;;;7341698;32;20233;-62
2022/06/09 20:28:43;;;;;;;7.62;2.83;;;14.90;99.90;;;;;;7340386;32;20145;-66
2022/06/09 20:32:45;;;;;;;8.82;2.92;;;14.70;99.90;;;;;;7341544;32;20186;-62
2022/06/09 20:36:47;;;;;;;10.02;2.80;;;14.50;99.90;;;;;;7335509;32;20163;-63
2022/06/09 20:40:49;;;;;;;5.15;2.80;;;14.40;99.90;;;;;;7343853;32;20108;-63
2022/06/09 20:44:50;;;;;;;4.75;2.75;;;14.30;99.90;;;;;;7337577;32;20169;-63
2022/06/09 20:49:00;;;;;;;6.12;2.80;;;14.20;99.90;;;;;;7345367;32;20435;-64
2022/06/09 20:53:05;;;;;;;10.52;3.10;;;14.00;99.90;;;;;;7342824;32;20107;-61
2022/06/09 20:57:07;;;;;;;11.90;4.10;;;13.90;99.90;;;;;;7339594;32;20107;-61
2022/06/09 21:01:09;;;;;;;6.72;3.45;;;13.80;99.90;;;;;;7332964;32;20127;-62
2022/06/09 21:05:12;;;;;;;8.63;3.30;;;13.70;99.90;;;;;;7345061;32;20107;-62
2022/06/09 21:09:14;;;;;;;3.83;3.15;;;13.60;99.90;;;;;;7329066;32;20277;-61
2022/06/09 21:21:58;;;;;;;4.43;3.75;;;13.30;99.90;;;;;;7343168;32;20123;-62
2022/06/09 21:26:00;;;;;;;8.88;3.75;;;13.20;99.90;;;;;;7339052;32;20108;-63
2022/06/09 21:30:04;;;;;;;8.68;3.78;;;13.10;99.90;;;;;;7340896;32;20137;-60
2022/06/09 21:34:05;;;;;;;7.15;3.70;;;13.00;99.90;;;;;;7343660;32;20508;-63
2022/06/09 21:38:07;;;;;;;5.60;3.70;;;12.90;99.90;;;;;;7338794;32;20126;-62
2022/06/09 21:42:09;;;;;;;5.68;3.45;;;12.90;99.90;;;;;;7344900;32;20472;-61
2022/06/09 21:46:12;;;;;;;7.22;3.40;;;12.90;99.90;;;;;;7338072;32;20142;-61
2022/06/09 21:50:17;;;;;;;5.20;3.75;;;12.80;99.90;;;;;;7342684;32;20557;-61